createdAt,value
2022-12-01T00:01:42.988Z,6.15
2022-12-01T00:04:11.835Z,5.85
2022-12-01T00:06:40.709Z,5.75
2022-12-01T00:09:29.062Z,5.95
2022-12-01T00:11:58.109Z,5.91
2022-12-01T00:14:26.958Z,5.70
2022-12-01T00:16:56.002Z,5.75
2022-12-01T00:19:28.945Z,5.68
2022-12-01T00:21:57.994Z,5.63
2022-12-01T00:24:26.971Z,5.53
2022-12-01T00:26:56.088Z,5.60
2022-12-01T00:29:24.849Z,5.02
2022-12-01T00:31:53.830Z,5.20
2022-12-01T00:34:26.893Z,4.98
2022-12-01T00:36:55.869Z,4.91
2022-12-01T00:39:24.986Z,5.32
2022-12-01T00:41:54.206Z,5.24
2022-12-01T00:44:23.066Z,4.88
2022-12-01T00:46:51.958Z,4.77
2022-12-01T00:49:20.937Z,4.94
2022-12-01T00:51:50.048Z,4.88
2022-12-01T00:54:18.914Z,4.98
2022-12-01T00:56:47.971Z,5.19
2022-12-01T00:59:16.684Z,5.41
2022-12-01T01:01:45.790Z,5.38
2022-12-01T01:04:14.885Z,4.78
2022-12-01T01:06:46.374Z,5.15
2022-12-01T01:09:16.647Z,5.40
2022-12-01T01:11:47.040Z,5.02
2022-12-01T01:14:16.219Z,5.35
2022-12-01T01:16:45.119Z,5.41
2022-12-01T01:19:14.267Z,5.20
2022-12-01T01:21:43.075Z,5.43
2022-12-01T01:24:12.083Z,5.31
2022-12-01T01:26:40.806Z,5.38
2022-12-01T01:29:09.834Z,5.48
2022-12-01T01:31:39.678Z,5.48
2022-12-01T01:34:08.806Z,4.99
2022-12-01T01:36:37.534Z,5.23
2022-12-01T01:39:06.890Z,5.53
2022-12-01T01:41:35.861Z,5.25
2022-12-01T01:44:05.541Z,5.43
2022-12-01T01:46:36.237Z,5.22
2022-12-01T01:49:09.771Z,5.05
2022-12-01T01:51:44.444Z,5.24
2022-12-01T01:54:20.977Z,5.35
2022-12-01T01:56:51.505Z,5.54
2022-12-01T01:59:29.478Z,5.96
2022-12-01T02:02:07.602Z,6.37
2022-12-01T02:04:42.890Z,6.81
2022-12-01T02:07:13.374Z,7.17
2022-12-01T02:09:42.682Z,7.31
2022-12-01T02:12:14.565Z,7.88
2022-12-01T02:15:23.526Z,7.81
2022-12-01T02:18:37.418Z,7.99
2022-12-01T02:21:25.439Z,8.17
2022-12-01T02:24:32.886Z,8.57
2022-12-01T02:27:24.309Z,9.13
2022-12-01T02:30:10.544Z,9.54
2022-12-01T02:33:06.691Z,9.87
2022-12-01T02:35:49.606Z,9.94
2022-12-01T02:38:42.026Z,10.43
2022-12-01T02:41:14.369Z,10.92
2022-12-01T02:44:11.580Z,11.23
2022-12-01T02:46:54.165Z,11.28
2022-12-01T02:49:31.319Z,10.84
2022-12-01T02:52:01.901Z,10.41
2022-12-01T02:54:33.810Z,10.18
2022-12-01T02:57:02.806Z,9.89
2022-12-01T02:59:31.625Z,10.03
2022-12-01T03:02:25.781Z,10.06
2022-12-01T03:05:10.120Z,10.02
2022-12-01T03:08:16.077Z,9.91
2022-12-01T03:10:56.100Z,9.84
2022-12-01T03:13:45.481Z,9.89
2022-12-01T03:16:18.118Z,9.93
2022-12-01T03:18:58.535Z,10.00
2022-12-01T03:21:41.492Z,10.06
2022-12-01T03:24:19.083Z,10.06
2022-12-01T03:26:52.853Z,10.28
2022-12-01T03:29:42.436Z,10.37
2022-12-01T03:32:21.403Z,10.30
2022-12-01T03:35:19.349Z,10.22
2022-12-01T03:38:15.270Z,10.45
2022-12-01T03:40:48.562Z,10.29
2022-12-01T03:43:24.831Z,10.33
2022-12-01T03:46:04.584Z,10.74
2022-12-01T03:48:34.429Z,10.50
2022-12-01T03:51:32.586Z,10.63
2022-12-01T03:54:17.777Z,10.58
2022-12-01T03:57:00.884Z,10.68
2022-12-01T03:59:31.935Z,10.70
2022-12-01T04:02:01.029Z,10.58
2022-12-01T04:04:30.130Z,10.88
2022-12-01T04:06:59.708Z,10.95
2022-12-01T04:09:28.615Z,11.21
2022-12-01T04:12:16.312Z,11.74
2022-12-01T04:14:45.291Z,11.72
2022-12-01T04:17:14.853Z,11.81
2022-12-01T04:19:44.158Z,11.66
2022-12-01T04:22:13.111Z,11.81
2022-12-01T04:24:42.428Z,11.81
2022-12-01T04:27:11.464Z,11.78
2022-12-01T04:29:41.265Z,11.79
2022-12-01T04:32:10.399Z,11.68
2022-12-01T04:34:39.615Z,11.76
2022-12-01T04:37:08.849Z,11.90
2022-12-01T04:39:38.671Z,11.96
2022-12-01T04:42:07.639Z,12.03
2022-12-01T04:44:37.012Z,12.13
2022-12-01T04:47:06.939Z,12.26
2022-12-01T04:49:38.552Z,12.31
2022-12-01T04:52:08.571Z,12.46
2022-12-01T04:54:37.575Z,12.70
2022-12-01T04:57:06.779Z,12.92
2022-12-01T04:59:35.744Z,12.92
2022-12-01T05:02:05.158Z,13.16
2022-12-01T05:04:35.223Z,13.52
2022-12-01T05:07:04.191Z,13.74
2022-12-01T05:09:33.112Z,14.07
2022-12-01T05:12:02.691Z,14.44
2022-12-01T05:14:31.600Z,14.85
2022-12-01T05:17:01.489Z,15.47
2022-12-01T05:19:49.040Z,15.56
2022-12-01T05:22:26.930Z,15.71
2022-12-01T05:25:07.383Z,15.98
2022-12-01T05:27:36.193Z,16.13
2022-12-01T05:30:05.766Z,16.11
2022-12-01T05:32:34.600Z,15.96
2022-12-01T05:35:03.692Z,15.91
2022-12-01T05:37:35.535Z,15.24
2022-12-01T05:40:06.186Z,15.54
2022-12-01T05:42:35.124Z,15.25
2022-12-01T05:45:04.395Z,14.90
2022-12-01T05:47:33.191Z,14.86
2022-12-01T05:50:05.775Z,14.87
2022-12-01T05:52:36.734Z,14.72
2022-12-01T05:55:06.743Z,14.84
2022-12-01T05:57:35.642Z,14.63
2022-12-01T06:00:07.189Z,14.87
2022-12-01T06:02:43.477Z,14.59
2022-12-01T06:05:12.612Z,14.51
2022-12-01T06:07:41.476Z,14.55
2022-12-01T06:10:12.451Z,14.64
2022-12-01T06:12:41.594Z,14.87
2022-12-01T06:15:13.222Z,15.26
2022-12-01T06:17:43.899Z,15.76
2022-12-01T06:20:13.890Z,16.22
2022-12-01T06:22:42.733Z,16.98
2022-12-01T06:25:12.293Z,17.80
2022-12-01T06:27:41.106Z,18.46
2022-12-01T06:30:10.879Z,19.29
2022-12-01T06:32:40.168Z,19.73
2022-12-01T06:35:14.910Z,20.22
2022-12-01T06:37:44.163Z,20.65
2022-12-01T06:40:13.461Z,20.76
2022-12-01T06:42:42.465Z,21.17
2022-12-01T06:45:11.943Z,21.68
2022-12-01T06:47:41.827Z,22.35
2022-12-01T06:50:12.869Z,22.50
2022-12-01T06:52:41.939Z,23.05
2022-12-01T06:55:11.183Z,22.65
2022-12-01T06:57:40.613Z,23.33
2022-12-01T07:00:10.548Z,23.64
2022-12-01T07:02:40.561Z,24.17
2022-12-01T07:05:14.944Z,23.85
2022-12-01T07:07:44.318Z,24.22
2022-12-01T07:10:14.451Z,24.17
2022-12-01T07:12:43.436Z,24.48
2022-12-01T07:15:12.584Z,24.37
2022-12-01T07:17:41.593Z,24.22
2022-12-01T07:20:11.427Z,24.49
2022-12-01T07:22:40.990Z,24.12
2022-12-01T07:25:15.335Z,24.63
2022-12-01T07:27:44.427Z,24.70
2022-12-01T07:30:13.506Z,24.65
2022-12-01T07:32:42.453Z,25.08
2022-12-01T07:35:11.615Z,24.33
2022-12-01T07:37:40.535Z,24.98
2022-12-01T07:40:11.274Z,24.75
2022-12-01T07:42:43.908Z,25.04
2022-12-01T07:45:12.832Z,25.56
2022-12-01T07:47:41.925Z,24.34
2022-12-01T07:50:12.253Z,23.37
2022-12-01T07:52:41.192Z,23.20
2022-12-01T07:55:10.213Z,23.61
2022-12-01T07:57:39.279Z,24.04
2022-12-01T08:00:09.649Z,24.07
2022-12-01T08:02:43.129Z,24.01
2022-12-01T08:05:12.248Z,24.95
2022-12-01T08:07:41.444Z,22.84
2022-12-01T08:10:10.951Z,22.73
2022-12-01T08:12:39.982Z,23.37
2022-12-01T08:15:14.923Z,22.91
2022-12-01T08:17:44.233Z,23.06
2022-12-01T08:20:13.422Z,22.96
2022-12-01T08:22:42.329Z,22.68
2022-12-01T08:25:11.464Z,21.78
2022-12-01T08:27:40.557Z,21.41
2022-12-01T08:30:10.040Z,20.79
2022-12-01T08:32:39.085Z,20.58
2022-12-01T08:35:14.891Z,20.32
2022-12-01T08:37:44.068Z,20.41
2022-12-01T08:40:13.281Z,20.45
2022-12-01T08:42:42.305Z,19.99
2022-12-01T08:45:16.114Z,20.48
2022-12-01T08:47:45.573Z,20.92
2022-12-01T08:50:14.442Z,21.14
2022-12-01T08:52:43.490Z,21.21
2022-12-01T08:55:14.959Z,21.01
2022-12-01T08:57:43.921Z,21.38
2022-12-01T09:00:13.450Z,21.37
2022-12-01T09:02:42.731Z,20.93
2022-12-01T09:05:11.788Z,21.19
2022-12-01T09:07:42.079Z,21.23
2022-12-01T09:10:11.667Z,21.21
2022-12-01T09:12:40.428Z,20.85
2022-12-01T09:15:16.934Z,20.48
2022-12-01T09:17:45.953Z,20.22
2022-12-01T09:20:15.021Z,19.29
2022-12-01T09:22:44.038Z,19.87
2022-12-01T09:25:15.777Z,19.72
2022-12-01T09:27:44.827Z,19.20
2022-12-01T09:30:15.594Z,19.20
2022-12-01T09:32:44.580Z,19.51
2022-12-01T09:35:13.429Z,18.96
2022-12-01T09:37:42.329Z,18.48
2022-12-01T09:40:16.366Z,18.56
2022-12-01T09:42:48.439Z,18.86
2022-12-01T09:45:33.600Z,18.39
2022-12-01T09:48:05.926Z,18.57
2022-12-01T09:50:35.572Z,18.11
2022-12-01T09:53:08.934Z,17.99
2022-12-01T09:55:38.765Z,17.93
2022-12-01T09:58:18.198Z,17.92
2022-12-01T10:00:50.214Z,17.95
2022-12-01T10:03:46.504Z,18.03
2022-12-01T10:06:29.259Z,17.46
2022-12-01T10:09:20.131Z,17.39
2022-12-01T10:11:53.085Z,17.04
2022-12-01T10:14:23.050Z,16.61
2022-12-01T10:17:15.738Z,16.26
2022-12-01T10:19:53.652Z,15.86
2022-12-01T10:22:40.678Z,16.44
2022-12-01T10:25:28.247Z,16.79
2022-12-01T10:28:06.866Z,16.97
2022-12-01T10:30:42.835Z,16.84
2022-12-01T10:33:25.744Z,16.57
2022-12-01T10:35:55.575Z,16.41
2022-12-01T10:38:33.414Z,16.02
2022-12-01T10:41:07.765Z,15.32
2022-12-01T10:43:43.621Z,15.02
2022-12-01T10:46:38.826Z,14.49
2022-12-01T10:49:16.207Z,14.04
2022-12-01T10:51:56.144Z,13.67
2022-12-01T10:54:36.722Z,13.39
2022-12-01T10:57:08.686Z,13.13
2022-12-01T10:59:57.016Z,12.68
2022-12-01T11:02:29.375Z,12.44
2022-12-01T11:05:08.245Z,12.23
2022-12-01T11:07:47.560Z,11.90
2022-12-01T11:10:34.081Z,11.87
2022-12-01T11:13:19.603Z,11.64
2022-12-01T11:15:55.148Z,11.18
2022-12-01T11:18:31.512Z,11.06
2022-12-01T11:21:26.240Z,11.01
2022-12-01T11:23:57.762Z,10.84
2022-12-01T11:26:33.582Z,11.00
2022-12-01T11:29:08.107Z,10.78
2022-12-01T11:31:55.759Z,10.40
2022-12-01T11:34:31.958Z,9.99
2022-12-01T11:37:23.609Z,10.02
2022-12-01T11:39:53.735Z,9.61
2022-12-01T11:42:29.845Z,9.50
2022-12-01T11:45:09.928Z,9.50
2022-12-01T11:48:03.099Z,9.37
2022-12-01T11:50:37.923Z,9.18
2022-12-01T11:53:31.823Z,9.17
2022-12-01T11:56:24.394Z,8.85
2022-12-01T11:58:59.159Z,8.52
2022-12-01T12:01:51.786Z,8.60
2022-12-01T12:05:01.600Z,8.55
2022-12-01T12:08:16.980Z,8.46
2022-12-01T12:11:30.107Z,8.34
2022-12-01T12:14:23.793Z,8.37
2022-12-01T12:17:17.722Z,8.27
2022-12-01T12:20:35.116Z,8.22
2022-12-01T12:23:34.786Z,8.14
2022-12-01T12:26:26.767Z,8.10
2022-12-01T12:29:22.414Z,8.07
2022-12-01T12:31:59.887Z,8.12
2022-12-01T12:34:34.912Z,8.14
2022-12-01T12:37:32.777Z,8.11
2022-12-01T12:40:24.456Z,7.94
2022-12-01T12:43:32.146Z,7.95
2022-12-01T12:46:19.873Z,7.70
2022-12-01T12:49:12.031Z,7.79
2022-12-01T12:52:09.273Z,7.65
2022-12-01T12:54:51.774Z,7.69
2022-12-01T12:57:23.455Z,7.74
2022-12-01T13:00:22.815Z,7.62
2022-12-01T13:03:07.273Z,7.57
2022-12-01T13:05:50.476Z,7.34
2022-12-01T13:08:28.103Z,7.10
2022-12-01T13:11:11.866Z,7.26
2022-12-01T13:13:40.995Z,7.19
2022-12-01T13:16:17.963Z,7.18
2022-12-01T13:19:00.806Z,7.07
2022-12-01T13:21:40.579Z,7.02
2022-12-01T13:24:19.818Z,6.78
2022-12-01T13:26:59.096Z,6.93
2022-12-01T13:29:42.436Z,6.80
2022-12-01T13:32:30.954Z,6.67
2022-12-01T13:35:01.993Z,6.51
2022-12-01T13:37:36.781Z,6.06
2022-12-01T13:40:25.809Z,6.30
2022-12-01T13:43:10.644Z,6.56
2022-12-01T13:45:42.853Z,6.40
2022-12-01T13:48:38.206Z,6.42
2022-12-01T13:51:08.077Z,6.28
2022-12-01T13:53:40.537Z,6.34
2022-12-01T13:56:19.065Z,6.36
2022-12-01T13:58:54.200Z,6.38
2022-12-01T14:01:23.576Z,6.30
2022-12-01T14:04:18.256Z,6.11
2022-12-01T14:06:52.197Z,6.16
2022-12-01T14:09:30.682Z,6.15
2022-12-01T14:12:23.363Z,5.94
2022-12-01T14:15:00.905Z,5.86
2022-12-01T14:17:35.279Z,6.00
2022-12-01T14:20:21.737Z,6.10
2022-12-01T14:23:35.861Z,6.11
2022-12-01T14:26:14.136Z,6.06
2022-12-01T14:29:01.821Z,6.04
2022-12-01T14:31:37.165Z,6.02
2022-12-01T14:34:17.348Z,5.93
2022-12-01T14:36:55.997Z,6.01
2022-12-01T14:39:35.964Z,6.00
2022-12-01T14:45:51.197Z,6.03
2022-12-01T14:48:27.854Z,6.01
2022-12-01T14:51:24.314Z,5.95
2022-12-01T14:53:56.376Z,6.04
2022-12-01T14:56:28.232Z,6.14
2022-12-01T14:59:03.864Z,6.19
2022-12-01T15:02:13.971Z,6.32
2022-12-01T15:05:12.003Z,6.59
2022-12-01T15:07:47.875Z,6.68
2022-12-01T15:10:30.013Z,6.65
2022-12-01T15:12:59.226Z,6.46
2022-12-01T15:15:29.055Z,6.69
2022-12-01T15:18:43.675Z,7.04
2022-12-01T15:21:15.350Z,6.99
2022-12-01T15:24:08.137Z,6.93
2022-12-01T15:26:46.876Z,6.93
2022-12-01T15:29:25.178Z,7.40
2022-12-01T15:32:03.122Z,7.79
2022-12-01T15:34:48.950Z,7.88
2022-12-01T15:37:23.325Z,7.74
2022-12-01T15:40:59.829Z,7.68
2022-12-01T15:43:08.721Z,7.93
2022-12-01T15:45:55.353Z,8.09
2022-12-01T15:48:32.265Z,8.35
2022-12-01T15:51:12.212Z,8.54
2022-12-01T15:53:56.613Z,8.47
2022-12-01T15:56:37.832Z,8.24
2022-12-01T15:59:36.238Z,8.29
2022-12-01T16:02:33.020Z,8.23
2022-12-01T16:05:08.519Z,8.26
2022-12-01T16:08:11.300Z,8.26
2022-12-01T16:10:29.357Z,7.83
2022-12-01T16:13:35.995Z,8.15
2022-12-01T16:16:30.714Z,8.40
2022-12-01T16:22:13.267Z,8.73
2022-12-01T16:24:58.039Z,8.94
2022-12-01T16:27:32.221Z,9.07
2022-12-01T16:30:20.660Z,9.10
2022-12-01T16:32:52.625Z,9.03
2022-12-01T16:35:24.547Z,9.00
2022-12-01T16:37:54.941Z,8.80
2022-12-01T16:40:24.875Z,8.92
2022-12-01T16:42:54.707Z,8.60
2022-12-01T16:45:27.482Z,8.73
2022-12-01T16:47:57.123Z,8.70
2022-12-01T16:50:26.072Z,8.68
2022-12-01T16:52:55.292Z,8.77
2022-12-01T16:55:35.508Z,8.79
2022-12-01T16:58:05.343Z,8.74
2022-12-01T17:00:35.269Z,8.57
2022-12-01T17:03:07.193Z,8.39
2022-12-01T17:05:36.845Z,8.40
2022-12-01T17:08:06.867Z,8.43
2022-12-01T17:10:41.433Z,8.33
2022-12-01T17:13:10.872Z,8.13
2022-12-01T17:15:49.102Z,8.14
2022-12-01T17:18:20.599Z,8.25
2022-12-01T17:21:04.638Z,7.85
2022-12-01T17:23:34.197Z,7.86
2022-12-01T17:26:07.419Z,8.11
2022-12-01T17:28:37.096Z,8.24
2022-12-01T17:31:07.693Z,8.20
2022-12-01T17:33:37.833Z,8.11
2022-12-01T17:36:13.253Z,8.08
2022-12-01T17:38:46.535Z,7.89
2022-12-01T17:41:19.468Z,7.71
2022-12-01T17:43:52.303Z,8.00
2022-12-01T17:46:22.107Z,8.11
2022-12-01T17:48:51.252Z,7.59
2022-12-01T17:51:21.032Z,8.07
2022-12-01T17:53:50.206Z,8.07
2022-12-01T17:56:19.810Z,7.87
2022-12-01T17:58:51.725Z,7.99
2022-12-01T18:01:26.782Z,7.94
2022-12-01T18:04:00.235Z,7.74
2022-12-01T18:06:30.093Z,7.61
2022-12-01T18:09:03.455Z,7.71
2022-12-01T18:11:32.845Z,7.62
2022-12-01T18:14:02.455Z,7.53
2022-12-01T18:16:33.550Z,7.46
2022-12-01T18:19:03.435Z,7.41
2022-12-01T18:21:32.407Z,7.49
2022-12-01T18:24:04.886Z,7.44
2022-12-01T18:26:34.979Z,7.47
2022-12-01T18:29:30.071Z,7.50
2022-12-01T18:32:00.907Z,7.31
2022-12-01T18:34:30.801Z,7.30
2022-12-01T18:36:59.879Z,7.54
2022-12-01T18:39:29.103Z,7.43
2022-12-01T18:42:51.709Z,7.46
2022-12-01T18:45:21.580Z,7.28
2022-12-01T18:47:50.994Z,7.38
2022-12-01T18:50:20.035Z,7.35
2022-12-01T18:52:48.817Z,7.36
2022-12-01T18:55:40.002Z,7.46
2022-12-01T18:58:09.311Z,7.34
2022-12-01T19:00:39.329Z,7.53
2022-12-01T19:03:09.149Z,7.24
2022-12-01T19:06:14.916Z,7.39
2022-12-01T19:09:33.438Z,7.37
2022-12-01T19:12:02.674Z,7.36
2022-12-01T19:15:03.051Z,7.34
2022-12-01T19:17:33.035Z,7.03
2022-12-01T19:23:59.034Z,7.25
2022-12-01T19:26:28.773Z,7.24
2022-12-01T19:28:57.621Z,7.17
2022-12-01T19:31:26.965Z,7.27
2022-12-01T19:33:56.957Z,7.28
2022-12-01T19:36:28.689Z,7.12
2022-12-01T19:39:00.440Z,7.21
2022-12-01T19:41:30.884Z,7.24
2022-12-01T19:44:39.169Z,7.33
2022-12-01T19:47:13.407Z,7.16
2022-12-01T19:49:44.943Z,7.33
2022-12-01T19:52:14.022Z,7.40
2022-12-01T19:55:21.474Z,7.49
2022-12-01T19:57:53.535Z,7.39
2022-12-01T20:00:26.816Z,7.50
2022-12-01T20:02:55.824Z,7.46
2022-12-01T20:05:24.732Z,7.49
2022-12-01T20:07:54.797Z,7.51
2022-12-01T20:10:23.859Z,7.48
2022-12-01T20:12:52.993Z,7.47
2022-12-01T20:15:22.402Z,7.44
2022-12-01T20:17:51.493Z,7.34
2022-12-01T20:20:20.501Z,7.30
2022-12-01T20:22:49.607Z,7.38
2022-12-01T20:25:46.569Z,7.42
2022-12-01T20:28:24.941Z,7.22
2022-12-01T20:30:55.219Z,7.46
2022-12-01T20:33:24.846Z,7.34
2022-12-01T20:35:54.775Z,7.50
2022-12-01T20:38:27.440Z,7.52
2022-12-01T20:40:57.443Z,7.48
2022-12-01T20:43:26.399Z,7.37
2022-12-01T20:45:55.630Z,7.31
2022-12-01T20:48:24.537Z,7.24
2022-12-01T20:50:53.681Z,7.36
2022-12-01T20:53:23.313Z,7.30
2022-12-01T20:55:52.933Z,7.17
2022-12-01T20:58:21.707Z,6.94
2022-12-01T21:00:50.923Z,6.96
2022-12-01T21:03:19.862Z,7.07
2022-12-01T21:05:49.272Z,7.01
2022-12-01T21:08:37.011Z,7.02
2022-12-01T21:11:09.342Z,7.12
2022-12-01T21:14:08.906Z,7.14
2022-12-01T21:16:56.283Z,7.15
2022-12-01T21:19:49.047Z,7.07
2022-12-01T21:22:18.306Z,6.85
2022-12-01T21:24:52.292Z,6.77
2022-12-01T21:27:21.544Z,7.20
2022-12-01T21:29:51.250Z,7.23
2022-12-01T21:32:27.510Z,7.07
2022-12-01T21:35:04.456Z,7.07
2022-12-01T21:37:33.736Z,7.21
2022-12-01T21:40:06.093Z,7.09
2022-12-01T21:42:38.381Z,7.02
2022-12-01T21:45:35.799Z,6.85
2022-12-01T21:48:36.243Z,6.94
2022-12-01T21:51:20.473Z,6.76
2022-12-01T21:53:50.365Z,7.03
2022-12-01T21:56:32.780Z,7.21
2022-12-01T21:59:20.732Z,7.05
2022-12-01T22:01:55.177Z,6.80
2022-12-01T22:04:33.037Z,6.68
2022-12-01T22:07:02.197Z,6.51
2022-12-01T22:09:34.503Z,6.58
2022-12-01T22:12:30.313Z,6.73
2022-12-01T22:15:03.343Z,6.71
2022-12-01T22:17:32.507Z,6.96
2022-12-01T22:20:22.488Z,6.66
2022-12-01T22:22:51.722Z,6.79
2022-12-01T22:25:30.508Z,6.78
2022-12-01T22:28:01.096Z,6.92
2022-12-01T22:30:30.446Z,6.75
2022-12-01T22:33:07.203Z,6.88
2022-12-01T22:35:46.559Z,6.94
2022-12-01T22:38:32.440Z,6.81
2022-12-01T22:41:09.556Z,6.86
2022-12-01T22:43:53.025Z,6.93
2022-12-01T22:46:28.368Z,6.80
2022-12-01T22:49:21.327Z,6.78
2022-12-01T22:51:52.100Z,6.71
2022-12-01T22:54:33.225Z,6.72
2022-12-01T22:57:32.009Z,6.51
2022-12-01T23:00:19.411Z,6.42
2022-12-01T23:02:54.172Z,6.33
2022-12-01T23:05:26.685Z,6.17
2022-12-01T23:07:57.285Z,6.34
2022-12-01T23:10:32.379Z,6.36
2022-12-01T23:13:10.159Z,6.34
2022-12-01T23:15:42.017Z,6.27
2022-12-01T23:18:18.879Z,6.19
2022-12-01T23:20:53.417Z,5.84
2022-12-01T23:23:27.850Z,5.81
2022-12-01T23:25:57.773Z,5.93
2022-12-01T23:28:26.753Z,5.91
2022-12-01T23:30:58.334Z,6.15
2022-12-01T23:33:30.773Z,6.05
2022-12-01T23:36:08.316Z,6.12
2022-12-01T23:38:40.097Z,5.96
2022-12-01T23:41:19.502Z,5.90
2022-12-01T23:43:52.025Z,6.03
2022-12-01T23:46:24.134Z,5.96
2022-12-01T23:48:57.598Z,5.99
2022-12-01T23:51:32.023Z,6.12
2022-12-01T23:54:05.527Z,6.38
2022-12-01T23:56:34.720Z,6.23
2022-12-01T23:59:04.330Z,5.96
